Time;durP1;ratioP1;P1;durP2;ratioP2;P2;SDS_P1;SDS_P2;PMS_P1;PMS_P2;Temp;Humidity;BMP_temperature;BMP_pressure;BME280_temperature;BME280_humidity;BME280_pressure;Samples;Min_cycle;Max_cycle;Signal;HPM_P1;HPM_P2
2023/04/02 00:06:31;;;;;;;4.63;4.23;;;;;;;6.17;63.70;99783.94;19947468;29;20292;-84
2023/04/02 00:16:33;;;;;;;4.87;4.47;;;;;;;5.26;65.06;99812.50;19958250;29;20521;-85
2023/04/02 00:26:39;;;;;;;3.60;3.40;;;;;;;5.93;62.58;99831.16;19941395;29;20235;-85
2023/04/02 00:36:42;;;;;;;4.60;3.97;;;;;;;5.08;66.35;99847.09;19943756;29;20503;-84
2023/04/02 00:46:48;;;;;;;5.23;4.83;;;;;;;5.24;65.23;99879.16;19943516;29;20229;-84
2023/04/02 00:56:53;;;;;;;4.53;4.13;;;;;;;5.05;63.76;99891.66;19929039;29;20200;-86
2023/04/02 01:06:57;;;;;;;3.67;3.37;;;;;;;5.25;63.35;99925.59;19920492;29;20220;-85
2023/04/02 01:17:47;;;;;;;3.27;2.97;;;;;;;4.92;63.71;99940.91;19926227;29;20525;-84
2023/04/02 01:27:55;;;;;;;3.70;3.40;;;;;;;4.87;64.01;99952.22;19763988;29;20208;-84
2023/04/02 01:38:12;;;;;;;3.70;3.40;;;;;;;4.73;63.61;99977.41;19926562;29;20241;-84
2023/04/02 01:48:33;;;;;;;2.90;2.70;;;;;;;4.47;65.30;99995.84;19935978;29;20199;-83
2023/04/02 01:58:36;;;;;;;4.13;3.27;;;;;;;4.80;63.90;100013.31;19969407;29;20547;-85
2023/04/02 02:08:55;;;;;;;3.10;2.77;;;;;;;4.61;63.52;100029.38;19961378;29;20192;-83
2023/04/02 02:19:00;;;;;;;3.00;2.50;;;;;;;4.81;62.32;100042.94;19945483;29;20240;-83
2023/04/02 02:29:05;;;;;;;3.63;2.70;;;;;;;5.10;60.46;100063.03;19965433;29;20260;-83
2023/04/02 02:39:23;;;;;;;3.10;2.90;;;;;;;3.96;64.33;100088.91;19969578;29;20759;-79
2023/04/02 02:49:36;;;;;;;4.20;3.83;;;;;;;4.60;62.19;100109.63;19954306;29;20200;-82
2023/04/02 02:59:40;;;;;;;2.43;2.23;;;;;;;3.53;64.60;100124.47;19950520;29;20680;-83
2023/04/02 03:09:49;;;;;;;3.20;2.90;;;;;;;4.56;61.05;100154.13;19933301;29;20922;-79
2023/04/02 03:19:56;;;;;;;3.40;2.80;;;;;;;4.14;61.98;100157.91;19924656;29;20507;-78
2023/04/02 03:30:25;;;;;;;3.23;3.00;;;;;;;4.90;59.35;100192.94;19941617;29;20675;-78
2023/04/02 03:40:36;;;;;;;3.80;3.50;;;;;;;4.14;60.84;100213.78;19920764;29;20251;-80
2023/04/02 03:51:03;;;;;;;5.17;4.67;;;;;;;4.33;60.64;100238.94;19935023;29;20240;-80
2023/04/02 04:01:17;;;;;;;4.63;4.03;;;;;;;4.46;61.08;100259.72;19919597;29;20244;-79
2023/04/02 04:11:32;;;;;;;4.80;3.90;;;;;;;3.68;62.47;100283.38;19921218;29;20203;-81
2023/04/02 04:21:38;;;;;;;5.63;5.07;;;;;;;2.87;63.54;100306.50;19896127;29;20309;-79
2023/04/02 04:32:11;;;;;;;5.70;5.10;;;;;;;3.65;60.77;100331.41;19918092;29;20279;-79
2023/04/02 04:42:21;;;;;;;8.30;5.63;;;;;;;3.86;62.66;100349.59;19936812;29;20231;-80
2023/04/02 04:52:32;;;;;;;6.83;6.10;;;;;;;3.80;59.53;100381.50;19928311;29;20199;-81
2023/04/02 05:03:16;;;;;;;9.33;6.57;;;;;;;3.99;59.94;100408.66;19944486;29;20253;-81
2023/04/02 05:13:40;;;;;;;9.50;6.63;;;;;;;3.85;59.65;100425.31;19934079;29;20614;-79
2023/04/02 05:24:27;;;;;;;13.83;6.93;;;;;;;3.25;61.49;100452.63;19937848;29;20228;-83
2023/04/02 05:34:32;;;;;;;10.60;7.07;;;;;;;3.38;60.28;100479.03;19948912;29;20662;-83
2023/04/02 05:44:41;;;;;;;10.03;6.73;;;;;;;4.02;58.40;100503.06;19960275;29;20260;-80
2023/04/02 05:54:55;;;;;;;10.63;6.97;;;;;;;3.35;59.13;100510.31;19944948;29;20200;-84
2023/04/02 06:05:19;;;;;;;9.43;6.60;;;;;;;3.30;59.10;100541.88;19961731;29;20308;-83
2023/04/02 06:15:22;;;;;;;13.70;6.83;;;;;;;3.49;58.59;100559.59;19927779;29;20199;-84
2023/04/02 06:25:36;;;;;;;24.87;16.93;;;;;;;3.88;64.71;100583.88;19940778;29;20247;-74
2023/04/02 06:35:45;;;;;;;7.53;6.03;;;;;;;3.72;58.72;100610.28;19941676;29;20238;-80
2023/04/02 06:45:52;;;;;;;9.63;6.50;;;;;;;3.39;59.24;100636.97;19952147;29;20304;-83
2023/04/02 06:56:30;;;;;;;9.03;5.23;;;;;;;3.68;58.00;100649.09;19924984;29;20270;-79
2023/04/02 07:06:34;;;;;;;10.20;5.00;;;;;;;3.00;57.91;100676.75;19943932;29;20248;-82
2023/04/02 07:16:39;;;;;;;5.10;4.17;;;;;;;2.70;57.56;100701.88;19943247;29;20288;-83
2023/04/02 07:26:41;;;;;;;5.87;3.70;;;;;;;3.35;56.06;100722.38;19924883;29;20276;-84
2023/04/02 07:36:45;;;;;;;6.57;3.43;;;;;;;2.44;57.49;100740.91;19935762;29;20264;-85
2023/04/02 07:46:47;;;;;;;3.50;3.00;;;;;;;3.18;54.94;100752.59;19928456;29;20776;-82
2023/04/02 07:56:50;;;;;;;4.00;2.57;;;;;;;3.35;54.41;100786.56;19941401;29;20232;-82
2023/04/02 08:06:52;;;;;;;4.53;2.57;;;;;;;2.81;56.39;100792.81;19920903;29;20646;-79
2023/04/02 08:16:54;;;;;;;1.77;1.60;;;;;;;2.81;55.13;100820.69;19924197;29;20270;-80
2023/04/02 08:26:57;;;;;;;2.83;2.00;;;;;;;3.30;53.31;100834.88;19936921;29;20247;-81
2023/04/02 08:37:00;;;;;;;2.17;1.57;;;;;;;3.07;53.17;100855.78;19925180;29;20273;-80
2023/04/02 08:47:05;;;;;;;3.30;1.67;;;;;;;2.31;55.14;100869.59;19926745;29;20333;-83
2023/04/02 08:57:22;;;;;;;2.83;1.43;;;;;;;2.70;53.86;100885.84;19931130;29;20773;-85
2023/04/02 09:07:25;;;;;;;4.30;1.83;;;;;;;3.80;52.32;100906.50;19948332;29;20288;-82
2023/04/02 09:17:29;;;;;;;1.33;0.87;;;;;;;3.11;52.60;100934.19;19964992;29;20224;-83
2023/04/02 09:27:48;;;;;;;4.53;1.60;;;;;;;3.85;52.74;100937.19;19963057;29;20686;-82
2023/04/02 09:38:18;;;;;;;2.73;1.13;;;;;;;3.72;50.82;100962.91;19939874;29;20917;-84
2023/04/02 09:48:31;;;;;;;1.80;1.03;;;;;;;3.77;51.99;100985.25;19943097;29;20239;-83
2023/04/02 09:58:33;;;;;;;3.30;1.30;;;;;;;3.16;53.39;100999.22;19952904;29;20689;-82
2023/04/02 10:08:37;;;;;;;2.07;1.20;;;;;;;3.62;51.54;101020.72;19943870;29;20220;-83
2023/04/02 10:19:15;;;;;;;1.30;0.80;;;;;;;4.01;50.95;101034.94;19936117;29;20316;-82
2023/04/02 10:29:19;;;;;;;1.83;1.10;;;;;;;2.97;52.22;101058.56;19933177;29;20239;-83
2023/04/02 10:39:38;;;;;;;0.97;0.77;;;;;;;4.04;47.49;101073.50;19941852;29;20223;-79
2023/04/02 10:49:50;;;;;;;2.10;1.00;;;;;;;3.53;49.32;101091.09;19939190;29;20204;-81
2023/04/02 10:59:56;;;;;;;2.40;1.20;;;;;;;4.24;49.14;101098.69;19940378;29;20268;-80
2023/04/02 11:09:59;;;;;;;1.53;1.20;;;;;;;4.76;48.01;101106.66;19949310;29;20268;-81
2023/04/02 11:21:00;;;;;;;1.57;1.10;;;;;;;4.51;47.06;101117.91;19914032;29;20232;-84
2023/04/02 11:31:03;;;;;;;3.30;1.17;;;;;;;4.52;47.41;101153.97;19876299;29;20213;-81
2023/04/02 11:41:05;;;;;;;2.00;0.90;;;;;;;4.13;48.07;101166.81;19956423;29;20239;-82
2023/04/02 11:51:21;;;;;;;4.30;0.80;;;;;;;4.12;46.77;101181.91;19919446;29;20265;-80
2023/04/02 12:01:44;;;;;;;1.57;0.97;;;;;;;3.80;48.36;101190.53;19942934;29;20263;-80
2023/04/02 12:11:46;;;;;;;1.50;0.90;;;;;;;3.71;47.25;101195.84;19937281;29;20196;-82
2023/04/02 12:21:51;;;;;;;0.90;0.60;;;;;;;5.30;44.79;101198.25;19914929;29;20267;-85
2023/04/02 12:31:57;;;;;;;0.50;0.50;;;;;;;4.58;45.38;101214.38;19923221;29;20631;-83
2023/04/02 12:42:00;;;;;;;3.60;1.33;;;;;;;5.42;44.88;101211.97;19941166;29;20316;-81
2023/04/02 12:52:17;;;;;;;0.77;0.60;;;;;;;4.77;43.41;101224.97;19935349;29;20605;-82
2023/04/02 13:02:24;;;;;;;1.87;0.70;;;;;;;5.55;41.93;101225.34;19937630;29;20323;-83
2023/04/02 13:12:26;;;;;;;1.73;1.17;;;;;;;5.55;42.94;101244.94;19932722;29;20604;-82
2023/04/02 13:22:30;;;;;;;1.73;0.67;;;;;;;5.68;41.44;101241.53;19952962;29;20243;-81
2023/04/02 13:32:32;;;;;;;2.50;0.87;;;;;;;6.36;42.31;101245.31;19937062;29;20204;-83
2023/04/02 13:42:35;;;;;;;3.33;0.80;;;;;;;6.44;40.72;101252.28;19957913;29;20220;-83
2023/04/02 13:52:37;;;;;;;2.20;0.70;;;;;;;5.96;41.39;101254.84;19922807;29;20289;-83
2023/04/02 14:02:43;;;;;;;2.97;1.87;;;;;;;6.11;40.30;101265.13;19951846;29;20247;-84
2023/04/02 14:12:56;;;;;;;1.17;0.50;;;;;;;6.18;39.18;101264.81;19937940;29;20276;-83
2023/04/02 14:23:24;;;;;;;1.50;0.70;;;;;;;5.66;38.89;101280.22;19939919;29;20266;-82
2023/04/02 14:33:32;;;;;;;2.70;0.70;;;;;;;6.82;38.51;101289.88;19929568;29;20236;-84
2023/04/02 14:43:51;;;;;;;1.97;0.90;;;;;;;6.63;37.76;101300.97;19943604;29;20975;-83
2023/04/02 14:54:17;;;;;;;1.30;0.70;;;;;;;6.13;38.56;101315.31;19916634;29;20204;-86
2023/04/02 15:04:25;;;;;;;0.80;0.60;;;;;;;6.11;38.63;101320.34;19941021;29;20223;-83
2023/04/02 15:14:34;;;;;;;2.77;0.50;;;;;;;6.61;38.58;101324.84;19923277;29;20204;-85
2023/04/02 15:24:50;;;;;;;3.07;0.90;;;;;;;6.04;37.49;101333.84;19928324;29;20721;-84
2023/04/02 15:35:07;;;;;;;1.17;0.60;;;;;;;5.98;37.92;101355.44;19935212;29;20677;-85
2023/04/02 15:45:26;;;;;;;1.53;0.77;;;;;;;6.63;38.20;101340.25;19912742;29;20240;-86
2023/04/02 15:55:44;;;;;;;0.93;0.63;;;;;;;6.67;37.44;101352.59;19918938;29;21219;-87
2023/04/02 16:06:15;;;;;;;1.73;0.60;;;;;;;5.98;39.00;101384.31;19931853;29;20259;-85
2023/04/02 16:16:21;;;;;;;2.70;0.97;;;;;;;5.80;39.56;101398.94;19921056;29;20653;-84
2023/04/02 16:26:37;;;;;;;3.27;1.47;;;;;;;6.58;37.60;101410.41;19889662;29;20232;-88
2023/04/02 16:36:52;;;;;;;3.27;1.00;;;;;;;6.76;36.88;101417.34;19892396;29;20644;-89
2023/04/02 16:47:16;;;;;;;2.70;0.80;;;;;;;6.29;38.44;101457.09;19875188;29;20281;-87
2023/04/02 16:57:28;;;;;;;1.00;0.83;;;;;;;5.81;37.93;101467.88;19880731;29;20269;-85
2023/04/02 17:07:43;;;;;;;3.53;1.37;;;;;;;5.23;39.36;101481.31;19886540;29;20292;-88
2023/04/02 17:17:49;;;;;;;1.53;0.90;;;;;;;5.47;37.75;101494.81;19874847;29;20228;-88
2023/04/02 17:27:54;;;;;;;1.50;0.73;;;;;;;5.19;40.20;101499.78;19954281;29;20223;-89
2023/04/02 17:38:23;;;;;;;1.50;0.53;;;;;;;5.91;37.83;101509.91;19948238;29;20284;-88
2023/04/02 17:48:34;;;;;;;4.47;2.60;;;;;;;5.17;40.43;101530.00;19956769;29;20228;-86
2023/04/02 17:59:10;;;;;;;1.87;0.67;;;;;;;5.50;38.45;101528.69;19943888;29;20223;-82
2023/04/02 18:09:31;;;;;;;0.87;0.57;;;;;;;5.84;37.83;101548.56;19927466;29;20577;-84
2023/04/02 18:19:49;;;;;;;2.87;2.20;;;;;;;5.80;38.49;101558.66;19939279;29;20228;-88
2023/04/02 18:30:02;;;;;;;2.13;0.93;;;;;;;5.26;39.52;101575.13;19940391;29;20228;-87
2023/04/02 18:40:25;;;;;;;2.60;1.03;;;;;;;5.65;40.08;101583.91;19945178;29;20200;-89
2023/04/02 18:50:33;;;;;;;1.50;0.90;;;;;;;5.44;41.61;101590.56;19935788;29;20196;-88
2023/04/02 19:00:42;;;;;;;2.87;1.17;;;;;;;4.83;42.54;101610.78;19964540;29;20617;-87
2023/04/02 19:10:50;;;;;;;2.57;1.20;;;;;;;4.76;42.41;101624.16;19945400;29;20265;-86
2023/04/02 19:21:00;;;;;;;2.13;1.33;;;;;;;5.06;42.33;101622.63;19954456;29;20261;-86
2023/04/02 19:31:14;;;;;;;2.93;1.47;;;;;;;4.76;42.89;101640.13;19954754;29;20625;-86
2023/04/02 19:41:30;;;;;;;3.57;1.87;;;;;;;4.85;43.40;101644.94;19933597;29;20585;-86
2023/04/02 19:51:33;;;;;;;2.20;1.70;;;;;;;4.87;43.07;101651.09;19925608;29;20221;-86
2023/04/02 20:01:35;;;;;;;3.33;1.53;;;;;;;4.48;44.83;101656.19;19962796;29;20276;-89
2023/04/02 20:11:38;;;;;;;3.30;2.07;;;;;;;4.32;45.28;101670.31;19946973;29;20663;-87
2023/04/02 20:21:41;;;;;;;6.00;3.30;;;;;;;4.14;45.17;101679.91;19942925;29;20236;-84
2023/04/02 20:31:43;;;;;;;3.63;2.57;;;;;;;4.14;45.06;101693.88;19928815;29;20225;-89
2023/04/02 20:41:46;;;;;;;3.93;2.33;;;;;;;4.21;45.74;101702.94;19941191;29;20219;-89
2023/04/02 20:51:48;;;;;;;3.10;2.60;;;;;;;4.17;45.58;101715.75;19960647;29;20203;-88
2023/04/02 21:01:50;;;;;;;3.30;2.80;;;;;;;4.02;47.69;101724.78;19955847;29;20248;-88
2023/04/02 21:11:56;;;;;;;5.07;3.83;;;;;;;3.81;46.65;101743.31;19965445;29;20346;-87
2023/04/02 21:21:58;;;;;;;7.40;4.30;;;;;;;3.73;46.67;101748.50;19963458;29;20269;-87
2023/04/02 21:32:00;;;;;;;5.13;3.90;;;;;;;3.70;47.01;101749.88;19961738;29;20204;-86
2023/04/02 21:42:15;;;;;;;8.03;5.03;;;;;;;3.27;48.35;101749.88;19955035;29;20253;-87
2023/04/02 21:52:19;;;;;;;5.83;5.00;;;;;;;3.23;47.87;101768.25;19942108;29;20268;-86
2023/04/02 22:02:22;;;;;;;6.80;5.10;;;;;;;2.90;49.60;101770.03;19955114;29;20634;-86
2023/04/02 22:12:27;;;;;;;5.47;4.93;;;;;;;3.06;48.35;101773.88;19967183;29;20200;-86
2023/04/02 22:22:31;;;;;;;9.50;6.47;;;;;;;2.77;49.46;101789.91;19959823;29;20236;-88
2023/04/02 22:32:35;;;;;;;7.73;6.37;;;;;;;2.51;50.54;101798.91;19950087;29;20212;-88
2023/04/02 22:42:38;;;;;;;9.63;6.23;;;;;;;2.18;51.40;101811.69;19947265;29;20299;-87
2023/04/02 22:52:43;;;;;;;7.03;5.70;;;;;;;2.06;51.32;101824.81;19976514;29;20590;-88
2023/04/02 23:02:45;;;;;;;6.73;5.43;;;;;;;2.04;51.28;101827.00;19963304;29;20630;-88
2023/04/02 23:12:48;;;;;;;7.37;5.30;;;;;;;1.76;51.47;101839.00;19966728;29;20204;-88
2023/04/02 23:22:51;;;;;;;7.33;5.07;;;;;;;1.66;52.39;101842.38;19920549;29;20297;-88
2023/04/02 23:32:54;;;;;;;6.30;4.97;;;;;;;1.32;52.78;101844.16;19955187;29;20260;-88
2023/04/02 23:42:56;;;;;;;6.00;5.40;;;;;;;1.34;53.64;101853.09;19942304;29;20638;-89
2023/04/02 23:52:59;;;;;;;5.20;4.70;;;;;;;1.42;50.95;101854.66;19925842;29;20265;-89
